Time;durP1;ratioP1;P1;durP2;ratioP2;P2;SDS_P1;SDS_P2;PMS_P1;PMS_P2;Temp;Humidity;BMP_temperature;BMP_pressure;BME280_temperature;BME280_humidity;BME280_pressure;Samples;Min_cycle;Max_cycle;Signal;HPM_P1;HPM_P2
2022/12/15 00:40:18;;;;;;;13.88;6.82;;;;;;;-1.35;52.42;98717.13;5012742;28;20089;-78
2022/12/15 00:42:45;;;;;;;17.70;7.45;;;;;;;-1.35;52.37;98719.72;5012456;28;20523;-78
2022/12/15 00:45:15;;;;;;;16.80;7.93;;;;;;;-1.34;52.17;98716.25;5012494;28;20511;-78
2022/12/15 00:47:41;;;;;;;19.52;8.13;;;;;;;-1.35;51.79;98717.97;5012040;28;20496;-78
2022/12/15 01:20:17;;;;;;;12.10;6.43;;;;;;;-1.37;51.54;98730.09;5013118;28;20062;-80
2022/12/15 01:22:49;;;;;;;12.10;7.25;;;;;;;-1.37;51.50;98729.22;5012830;28;20823;-81
2022/12/15 01:25:17;;;;;;;12.98;6.80;;;;;;;-1.34;51.18;98731.75;5012766;28;20141;-83
2022/12/15 01:27:44;;;;;;;13.60;7.70;;;;;;;-1.32;51.66;98732.53;5012794;28;20080;-81
2022/12/15 01:30:14;;;;;;;18.17;7.47;;;;;;;-1.30;51.56;98741.09;5012657;28;20089;-82
2022/12/15 01:32:41;;;;;;;15.15;7.53;;;;;;;-1.28;51.31;98739.31;5012902;28;20061;-82
2022/12/15 01:35:12;;;;;;;13.60;6.63;;;;;;;-1.26;51.27;98734.97;4995793;28;20466;-82
2022/12/15 01:37:38;;;;;;;11.90;7.15;;;;;;;-1.24;51.23;98742.69;5012607;28;20507;-81
2022/12/15 01:42:52;;;;;;;13.98;6.95;;;;;;;-1.17;51.30;98749.38;5012831;28;20137;-83
2022/12/15 01:45:28;;;;;;;12.32;6.80;;;;;;;-1.17;50.75;98754.53;4994746;28;20061;-81
2022/12/15 01:48:05;;;;;;;11.90;6.82;;;;;;;-1.15;51.10;98751.94;5012479;28;20061;-82
2022/12/15 01:50:39;;;;;;;13.98;7.40;;;;;;;-1.11;51.15;98759.56;4995248;28;20060;-82
2022/12/15 01:53:06;;;;;;;12.75;7.30;;;;;;;-1.09;51.10;98762.09;5012796;28;20053;-81
2022/12/15 01:55:33;;;;;;;14.02;7.53;;;;;;;-1.09;51.38;98762.09;5012223;28;20132;-81
2022/12/15 01:58:04;;;;;;;12.32;7.47;;;;;;;-1.09;51.22;98760.38;4986953;28;20060;-81
2022/12/15 02:00:31;;;;;;;14.10;7.00;;;;;;;-1.10;51.31;98756.09;4994772;28;20057;-81
2022/12/15 02:03:00;;;;;;;17.90;8.52;;;;;;;-1.11;51.20;98754.41;5011834;28;20053;-83
2022/12/15 02:05:29;;;;;;;14.48;7.95;;;;;;;-1.09;51.15;98764.66;5011852;28;20057;-82
2022/12/15 02:07:55;;;;;;;15.30;7.78;;;;;;;-1.09;51.18;98768.13;5011956;28;20057;-81
2022/12/15 02:10:28;;;;;;;14.50;8.90;;;;;;;-1.10;51.68;98763.84;4994615;28;20061;-81
2022/12/15 02:13:06;;;;;;;15.70;8.80;;;;;;;-1.09;51.88;98768.13;5011988;28;20054;-81
2022/12/15 02:16:04;;;;;;;13.95;7.80;;;;;;;-1.08;51.75;98764.63;4994172;28;20134;-82
2022/12/15 02:18:54;;;;;;;17.83;8.10;;;;;;;-1.06;52.25;98780.09;5007946;28;20399;-80
2022/12/15 02:21:30;;;;;;;15.48;8.00;;;;;;;-1.05;52.00;98780.06;4994174;28;20570;-80
2022/12/15 02:24:12;;;;;;;14.88;8.32;;;;;;;-1.05;52.27;98771.44;5011810;28;20058;-81
2022/12/15 02:27:11;;;;;;;9.50;5.80;;;;;;;-1.05;52.19;98774.03;5011434;28;20876;-81
2022/12/15 02:30:15;;;;;;;15.18;9.07;;;;;;;-1.08;52.29;98774.97;5011848;28;20769;-81
2022/12/15 02:32:47;;;;;;;15.82;8.90;;;;;;;-1.11;52.21;98780.22;5011560;28;20050;-81
2022/12/15 02:35:35;;;;;;;16.13;8.63;;;;;;;-1.15;52.98;98782.91;5011472;28;20050;-80
2022/12/15 02:38:01;;;;;;;17.42;9.43;;;;;;;-1.16;52.20;98765.72;4994169;28;20054;-81
2022/12/15 02:40:28;;;;;;;15.77;9.30;;;;;;;-1.18;52.23;98773.50;5011516;28;20061;-81
2022/12/15 02:42:58;;;;;;;18.92;9.65;;;;;;;-1.21;52.54;98779.59;5011490;28;20058;-82
2022/12/15 02:45:51;;;;;;;18.08;9.50;;;;;;;-1.24;53.02;98779.66;5011044;28;20062;-85
2022/12/15 02:48:22;;;;;;;18.48;9.48;;;;;;;-1.23;52.70;98780.53;5011467;28;20105;-83
2022/12/15 02:50:55;;;;;;;18.30;9.13;;;;;;;-1.24;53.01;98784.00;5011330;28;20445;-82
2022/12/15 02:53:30;;;;;;;19.23;9.88;;;;;;;-1.26;53.34;98780.59;5011303;28;20143;-81
2022/12/15 02:56:24;;;;;;;16.35;9.02;;;;;;;-1.30;53.89;98769.50;4994003;28;20388;-81
2022/12/15 02:59:02;;;;;;;15.43;8.80;;;;;;;-1.28;53.40;98777.22;5011198;28;20060;-82
2022/12/15 03:01:35;;;;;;;18.15;9.35;;;;;;;-1.30;52.93;98782.41;4993726;28;20057;-81
2022/12/15 03:04:05;;;;;;;17.30;9.68;;;;;;;-1.32;52.65;98782.44;5011015;28;20629;-82
2022/12/15 03:06:32;;;;;;;16.83;9.18;;;;;;;-1.34;52.57;98785.94;5010970;28;20050;-81
2022/12/15 03:08:58;;;;;;;16.75;9.20;;;;;;;-1.37;52.86;98788.59;5011124;28;20046;-81
2022/12/15 03:11:25;;;;;;;15.20;8.35;;;;;;;-1.40;52.93;98784.34;5010801;28;20581;-80
2022/12/15 03:13:53;;;;;;;18.60;9.15;;;;;;;-1.43;52.71;98791.34;5010295;28;20050;-85
2022/12/15 03:16:20;;;;;;;16.42;9.30;;;;;;;-1.46;53.12;98792.25;5010586;28;20146;-80
2022/12/15 03:18:47;;;;;;;20.27;8.95;;;;;;;-1.48;52.93;98791.44;5010544;28;20108;-84
2022/12/15 03:21:13;;;;;;;17.45;8.82;;;;;;;-1.51;53.21;98787.19;5010948;28;20116;-83
2022/12/15 03:23:39;;;;;;;15.20;8.50;;;;;;;-1.53;53.09;98794.09;5010854;28;20395;-82
2022/12/15 03:26:06;;;;;;;17.02;9.48;;;;;;;-1.56;53.38;98804.53;5010579;28;20065;-83
2022/12/15 03:28:33;;;;;;;16.90;8.65;;;;;;;-1.60;53.40;98795.97;5010692;28;20057;-83
2022/12/15 03:30:59;;;;;;;18.60;9.55;;;;;;;-1.62;53.44;98804.66;5010696;28;20057;-83
2022/12/15 03:33:26;;;;;;;16.73;9.13;;;;;;;-1.65;53.13;98799.56;4993408;28;20050;-83
2022/12/15 03:35:52;;;;;;;17.08;8.80;;;;;;;-1.69;52.88;98805.69;4993314;28;20061;-85
2022/12/15 03:38:19;;;;;;;17.67;8.82;;;;;;;-1.74;53.23;98806.63;5010568;28;20119;-83
2022/12/15 03:40:46;;;;;;;14.73;9.23;;;;;;;-1.78;53.36;98802.44;5010557;28;20058;-83
2022/12/15 03:43:12;;;;;;;21.60;9.95;;;;;;;-1.83;53.28;98804.25;4993457;28;20101;-84
2022/12/15 03:45:39;;;;;;;18.85;10.45;;;;;;;-1.88;53.13;98808.66;5010428;28;20057;-82
2022/12/15 03:48:05;;;;;;;17.77;10.35;;;;;;;-1.94;52.89;98813.94;5010603;28;20156;-83
2022/12/15 03:50:32;;;;;;;17.55;10.15;;;;;;;-2.00;53.01;98820.94;5010414;28;20137;-83
2022/12/15 03:53:00;;;;;;;19.20;9.77;;;;;;;-2.06;53.13;98831.34;5010659;28;20054;-84
2022/12/15 03:55:27;;;;;;;20.08;11.10;;;;;;;-2.14;53.31;98820.34;5010314;28;20483;-83
2022/12/15 03:57:54;;;;;;;20.52;10.65;;;;;;;-2.23;53.47;98817.09;5010289;28;20057;-84
2022/12/15 04:00:23;;;;;;;19.10;9.40;;;;;;;-2.31;53.43;98816.41;5010758;28;20108;-82
2022/12/15 04:02:50;;;;;;;15.27;9.45;;;;;;;-2.38;53.75;98807.09;4993049;28;20125;-82
2022/12/15 04:05:28;;;;;;;19.17;9.82;;;;;;;-2.46;54.47;98809.81;5010322;28;20049;-83
2022/12/15 04:07:56;;;;;;;26.70;10.52;;;;;;;-2.49;53.98;98813.31;5010278;28;20153;-85
2022/12/15 04:10:25;;;;;;;17.42;9.65;;;;;;;-2.53;54.17;98810.78;5010388;28;20061;-84
2022/12/15 04:13:04;;;;;;;20.48;10.38;;;;;;;-2.57;54.18;98830.63;5010797;28;20153;-83
2022/12/15 04:15:31;;;;;;;18.63;9.55;;;;;;;-2.61;54.55;98823.84;5010494;28;20115;-83
2022/12/15 04:17:57;;;;;;;19.88;10.73;;;;;;;-2.65;54.01;98824.75;5010023;28;20530;-84
2022/12/15 04:20:24;;;;;;;19.58;10.82;;;;;;;-2.68;54.40;98832.53;5010538;28;20053;-83
2022/12/15 04:22:50;;;;;;;21.27;10.82;;;;;;;-2.72;54.58;98834.34;5010384;28;20057;-85
2022/12/15 05:32:05;;;;;;;23.48;11.15;;;;;;;-3.27;56.27;98863.53;5012741;28;20445;-83
2022/12/15 05:34:34;;;;;;;23.88;12.43;;;;;;;-3.28;56.38;98869.53;5012828;28;20076;-83
2022/12/15 05:37:02;;;;;;;22.83;10.95;;;;;;;-3.27;56.49;98868.69;5011837;28;20096;-83
2022/12/15 05:39:29;;;;;;;19.00;10.82;;;;;;;-3.27;56.30;98863.53;5012694;28;20050;-83
2022/12/15 05:41:56;;;;;;;21.38;10.32;;;;;;;-3.24;56.31;98869.50;5012509;28;20062;-84
2022/12/15 05:44:24;;;;;;;19.67;10.80;;;;;;;-3.23;56.73;98866.03;5012402;28;20065;-84
2022/12/15 05:46:51;;;;;;;20.83;11.07;;;;;;;-3.23;56.64;98878.91;4994768;28;20054;-83
2022/12/15 05:49:17;;;;;;;20.88;12.07;;;;;;;-3.20;56.49;98878.88;4995158;28;20145;-82
2022/12/15 05:51:46;;;;;;;22.48;11.60;;;;;;;-3.22;56.46;98875.47;5012484;28;20064;-83
2022/12/15 05:54:15;;;;;;;21.88;11.63;;;;;;;-3.20;56.75;98884.00;4994848;28;20069;-83
2022/12/15 05:56:42;;;;;;;22.88;10.98;;;;;;;-3.21;57.09;98883.16;5011915;28;20054;-83
2022/12/15 05:59:08;;;;;;;20.80;11.77;;;;;;;-3.20;56.62;98894.31;5012448;28;20434;-83
2022/12/15 06:01:35;;;;;;;23.35;11.55;;;;;;;-3.20;56.42;98899.47;5012265;28;20060;-84
2022/12/15 06:04:03;;;;;;;22.92;12.73;;;;;;;-3.20;56.63;98902.03;5012193;28;20100;-83
2022/12/15 06:06:29;;;;;;;30.85;13.10;;;;;;;-3.21;57.13;98906.31;5012103;28;20069;-83
2022/12/15 06:08:56;;;;;;;20.92;11.77;;;;;;;-3.20;56.54;98904.59;5011855;28;20057;-83
2022/12/15 06:11:22;;;;;;;20.50;11.20;;;;;;;-3.20;56.50;98907.19;5011861;28;20502;-85
2022/12/15 06:13:49;;;;;;;19.75;10.80;;;;;;;-3.19;56.51;98921.75;5012175;28;20140;-83
2022/12/15 06:16:18;;;;;;;22.33;11.68;;;;;;;-3.20;56.71;98915.75;5011886;28;20089;-83
2022/12/15 06:18:47;;;;;;;19.75;11.02;;;;;;;-3.19;56.30;98914.03;5011817;28;20058;-82
2022/12/15 06:21:22;;;;;;;19.70;11.00;;;;;;;-3.21;57.38;98918.34;5011985;28;20092;-83
2022/12/15 06:23:49;;;;;;;23.92;10.85;;;;;;;-3.18;56.75;98913.16;4994376;28;20144;-84
2022/12/15 06:26:24;;;;;;;21.67;11.25;;;;;;;-3.21;57.50;98914.03;4993988;28;20112;-82
2022/12/15 06:28:53;;;;;;;22.55;11.23;;;;;;;-3.16;56.71;98924.28;4994184;28;20061;-80
2022/12/15 06:31:24;;;;;;;20.58;11.80;;;;;;;-3.16;56.86;98920.00;5011662;28;20054;-81
2022/12/15 06:33:54;;;;;;;25.27;12.27;;;;;;;-3.16;57.26;98920.00;5011594;28;20521;-81
2022/12/15 06:36:27;;;;;;;25.75;12.32;;;;;;;-3.15;57.05;98925.97;5011525;28;20070;-81
2022/12/15 06:38:58;;;;;;;18.90;11.52;;;;;;;-3.15;57.40;98919.13;4994189;28;20054;-81
2022/12/15 06:41:24;;;;;;;22.65;11.82;;;;;;;-3.14;56.97;98923.38;5011748;28;20459;-81
2022/12/15 06:43:54;;;;;;;22.88;12.45;;;;;;;-3.14;57.35;98927.69;5011524;28;20057;-82
2022/12/15 06:46:22;;;;;;;20.88;12.00;;;;;;;-3.15;57.31;98926.84;5011364;28;20050;-80
2022/12/15 06:48:49;;;;;;;18.73;10.85;;;;;;;-3.15;56.69;98932.00;5011158;28;20079;-83
2022/12/15 06:51:16;;;;;;;21.00;10.55;;;;;;;-3.13;57.08;98929.41;5011287;28;20112;-82
2022/12/15 06:54:05;;;;;;;19.45;11.65;;;;;;;-3.15;56.83;98936.28;5011469;28;20088;-84
2022/12/15 06:56:34;;;;;;;18.85;10.18;;;;;;;-3.13;56.89;98926.81;5011256;28;20061;-81
2022/12/15 06:59:05;;;;;;;16.48;9.55;;;;;;;-3.12;57.13;98925.06;5011313;28;20046;-83
2022/12/15 07:01:32;;;;;;;21.02;10.77;;;;;;;-3.11;57.28;98932.78;5011192;28;20053;-82
2022/12/15 07:04:01;;;;;;;22.27;10.05;;;;;;;-3.09;57.03;98931.06;5011237;28;20064;-84
2022/12/15 07:06:35;;;;;;;18.20;10.20;;;;;;;-3.07;57.81;98936.19;5011051;28;20050;-83
2022/12/15 07:09:03;;;;;;;22.80;10.60;;;;;;;-3.03;57.46;98936.09;5003459;28;20066;-82
2022/12/15 07:14:15;;;;;;;27.80;14.25;;;;;;;-2.95;57.12;98932.56;5027224;23;20129;-78
2022/12/15 07:16:41;;;;;;;25.98;12.25;;;;;;;-2.94;56.73;98932.56;5009548;28;20054;-77
2022/12/15 07:19:11;;;;;;;21.50;11.68;;;;;;;-2.91;57.66;98936.81;4992563;28;20057;-79
2022/12/15 07:21:39;;;;;;;20.00;11.20;;;;;;;-2.88;56.85;98929.00;5009854;28;20488;-78
2022/12/15 07:24:06;;;;;;;24.65;11.65;;;;;;;-2.85;57.44;98931.53;5009808;28;20085;-78
2022/12/15 07:26:33;;;;;;;20.42;10.52;;;;;;;-2.81;57.31;98940.09;5009445;28;20049;-78
2022/12/15 07:29:00;;;;;;;17.70;10.32;;;;;;;-2.79;57.24;98939.19;4992109;28;20092;-78
2022/12/15 07:31:26;;;;;;;18.40;10.57;;;;;;;-2.77;57.20;98945.16;5009553;28;20140;-78
2022/12/15 07:33:53;;;;;;;20.40;10.75;;;;;;;-2.75;56.64;98951.16;5009851;28;20396;-78
2022/12/15 07:36:20;;;;;;;18.00;10.05;;;;;;;-2.72;56.71;98962.28;5009750;28;20054;-78
2022/12/15 07:38:46;;;;;;;21.70;11.02;;;;;;;-2.72;56.94;98954.53;4992132;28;20058;-78
2022/12/15 07:41:17;;;;;;;18.60;10.10;;;;;;;-2.72;56.90;98957.97;5009432;28;20053;-77
2022/12/15 07:43:44;;;;;;;22.67;10.68;;;;;;;-2.71;57.05;98963.97;5009422;28;20095;-78
2022/12/15 07:46:10;;;;;;;18.77;9.90;;;;;;;-2.71;56.39;98963.97;5009535;28;20137;-78
2022/12/15 07:48:36;;;;;;;20.60;11.10;;;;;;;-2.71;56.41;98975.13;5009702;28;20137;-78
2022/12/15 07:51:07;;;;;;;20.50;10.38;;;;;;;-2.70;56.84;98978.56;5009616;28;20054;-78
2022/12/15 07:53:42;;;;;;;18.90;10.13;;;;;;;-2.70;56.82;98983.72;5009614;28;20058;-78
2022/12/15 07:56:09;;;;;;;19.30;10.65;;;;;;;-2.73;56.32;98979.44;5009310;28;20096;-79
2022/12/15 07:58:37;;;;;;;19.92;10.98;;;;;;;-2.72;56.58;98990.59;5009431;28;20050;-79
2022/12/15 08:01:09;;;;;;;24.15;12.13;;;;;;;-2.75;57.21;98986.34;5011993;28;20058;-77
2022/12/15 08:03:36;;;;;;;20.00;8.93;;;;;;;-2.75;57.06;98991.50;5013432;28;20071;-77
2022/12/15 08:06:09;;;;;;;22.13;12.88;;;;;;;-2.78;56.92;98992.41;5013175;28;20054;-77
2022/12/15 08:08:35;;;;;;;23.35;12.52;;;;;;;-2.78;57.63;99000.13;5013168;28;20096;-77
2022/12/15 08:11:13;;;;;;;21.77;12.40;;;;;;;-2.78;57.51;98994.13;5013039;28;20163;-77
2022/12/15 08:13:40;;;;;;;20.40;11.63;;;;;;;-2.76;57.59;99000.94;5013116;28;20089;-77
2022/12/15 08:16:27;;;;;;;23.65;14.10;;;;;;;-2.75;58.13;98994.09;5012804;28;20046;-77
2022/12/15 08:18:55;;;;;;;22.63;13.80;;;;;;;-2.73;57.95;99000.06;5012983;28;20058;-77
2022/12/15 08:21:22;;;;;;;23.95;13.90;;;;;;;-2.73;58.36;98994.06;5012843;28;20112;-77
2022/12/15 08:23:48;;;;;;;25.48;14.75;;;;;;;-2.72;58.21;98994.03;5013284;28;20377;-76
2022/12/15 08:26:16;;;;;;;24.60;13.88;;;;;;;-2.68;58.25;99005.16;5012837;28;20082;-79
2022/12/15 08:28:44;;;;;;;28.73;15.40;;;;;;;-2.66;58.21;99008.56;5012801;28;20097;-78
2022/12/15 08:31:17;;;;;;;30.77;14.95;;;;;;;-2.66;58.78;99008.56;5012881;28;20366;-78
2022/12/15 08:33:44;;;;;;;30.30;15.75;;;;;;;-2.65;58.42;99015.41;5012708;28;20058;-77
2022/12/15 08:36:12;;;;;;;24.92;14.15;;;;;;;-2.62;58.49;99012.78;5012936;28;20053;-77
2022/12/15 08:38:40;;;;;;;25.92;13.82;;;;;;;-2.60;58.29;99012.75;4995362;28;20088;-77
2022/12/15 08:41:09;;;;;;;25.80;12.48;;;;;;;-2.57;57.90;99020.44;5012583;28;20062;-78
2022/12/15 08:43:36;;;;;;;25.90;13.57;;;;;;;-2.55;58.38;99021.28;5012868;28;20054;-78
2022/12/15 08:46:11;;;;;;;26.90;14.68;;;;;;;-2.53;58.49;99027.25;4996726;28;20056;-77
2022/12/15 08:48:38;;;;;;;26.17;14.20;;;;;;;-2.52;58.38;99028.94;5013234;28;20090;-78
2022/12/15 08:51:05;;;;;;;27.00;15.18;;;;;;;-2.50;58.40;99033.19;5013177;28;20180;-77
2022/12/15 08:53:31;;;;;;;20.95;13.45;;;;;;;-2.48;58.06;99035.75;5012946;28;20077;-77
2022/12/15 08:56:03;;;;;;;21.52;13.60;;;;;;;-2.49;59.16;99034.06;5012620;28;20050;-78
2022/12/15 08:58:29;;;;;;;25.50;14.18;;;;;;;-2.45;59.08;99029.72;5012279;28;20144;-77
2022/12/15 09:01:00;;;;;;;25.60;13.82;;;;;;;-2.45;59.58;99027.13;5011860;28;20480;-77
2022/12/15 09:03:27;;;;;;;23.02;12.68;;;;;;;-2.37;59.27;99033.00;5012223;28;20504;-77
2022/12/15 09:05:54;;;;;;;21.33;12.00;;;;;;;-2.31;59.03;99030.34;5012107;28;20069;-77
2022/12/15 09:08:21;;;;;;;28.15;14.65;;;;;;;-2.25;59.29;99027.66;5012069;28;20125;-78
2022/12/15 09:10:47;;;;;;;21.85;12.57;;;;;;;-2.18;58.65;99037.88;4994413;28;20137;-78
2022/12/15 09:13:18;;;;;;;29.13;15.07;;;;;;;-2.12;58.98;99042.94;4994263;28;20064;-77
2022/12/15 09:15:44;;;;;;;23.20;12.82;;;;;;;-2.08;58.95;99034.28;5011975;28;20120;-77
2022/12/15 09:18:31;;;;;;;28.17;15.23;;;;;;;-2.05;58.85;99031.66;5012054;28;20066;-77
2022/12/15 09:21:02;;;;;;;25.67;14.45;;;;;;;-2.02;59.12;99039.31;5011672;28;20141;-78
2022/12/15 09:23:28;;;;;;;24.88;14.75;;;;;;;-1.99;58.98;99041.00;4994842;28;20108;-79
2022/12/15 09:26:05;;;;;;;28.63;13.13;;;;;;;-1.95;59.51;99034.06;5011447;28;20332;-78
2022/12/15 09:28:32;;;;;;;25.35;13.57;;;;;;;-1.91;58.56;99039.13;4994487;28;20092;-77
2022/12/15 09:31:10;;;;;;;24.90;14.13;;;;;;;-1.88;58.84;99044.25;5011579;28;20516;-77
2022/12/15 09:33:37;;;;;;;23.13;12.60;;;;;;;-1.83;58.64;99045.00;5011684;28;20534;-77
2022/12/15 09:36:04;;;;;;;24.40;15.48;;;;;;;-1.78;58.64;99049.25;5011505;28;20057;-77
2022/12/15 09:38:36;;;;;;;25.98;15.25;;;;;;;-1.76;59.74;99050.09;4994012;28;20058;-77
2022/12/15 09:41:12;;;;;;;24.90;14.10;;;;;;;-1.74;59.98;99053.47;5011301;28;20116;-77
2022/12/15 09:43:47;;;;;;;27.33;13.60;;;;;;;-1.67;58.99;99054.22;5011615;28;20078;-78
2022/12/15 09:46:55;;;;;;;25.38;14.25;;;;;;;-1.64;60.61;99052.41;5011276;28;20140;-78
2022/12/15 09:49:37;;;;;;;25.58;14.65;;;;;;;-1.57;59.99;99061.75;4991371;28;20050;-77
2022/12/15 09:52:16;;;;;;;25.88;14.52;;;;;;;-1.51;60.01;99065.09;5011287;28;20213;-77
2022/12/15 09:54:43;;;;;;;30.23;16.63;;;;;;;-1.48;58.94;99060.75;5011060;28;20089;-77
2022/12/15 09:57:24;;;;;;;30.30;17.38;;;;;;;-1.45;59.74;99057.25;5010956;28;20133;-77
2022/12/15 10:00:20;;;;;;;34.67;17.20;;;;;;;-1.45;59.89;99055.50;5011366;28;20081;-77
2022/12/15 10:02:58;;;;;;;30.45;16.80;;;;;;;-1.43;60.65;99067.56;5011210;28;20053;-77
2022/12/15 10:06:02;;;;;;;33.95;18.23;;;;;;;-1.45;60.86;99067.56;5010785;28;20061;-77
2022/12/15 10:08:46;;;;;;;29.58;16.17;;;;;;;-1.41;59.46;99073.53;5010944;28;20072;-76
2022/12/15 10:11:33;;;;;;;27.27;16.52;;;;;;;-1.41;60.44;99073.53;5010760;28;20603;-78
2022/12/15 10:14:30;;;;;;;29.23;16.65;;;;;;;-1.40;61.25;99062.31;5010697;28;20089;-77
2022/12/15 10:17:09;;;;;;;32.08;18.13;;;;;;;-1.36;59.99;99061.38;5010492;28;20409;-76
2022/12/15 10:19:40;;;;;;;29.65;16.80;;;;;;;-1.31;59.77;99063.00;5010675;28;20140;-77
2022/12/15 10:22:12;;;;;;;32.25;17.55;;;;;;;-1.27;60.11;99063.78;4993138;28;20085;-76
2022/12/15 10:24:39;;;;;;;33.95;18.63;;;;;;;-1.21;60.32;99062.81;5010365;28;20579;-76
2022/12/15 10:27:34;;;;;;;29.33;16.67;;;;;;;-1.14;59.90;99069.56;5010264;28;20480;-77
2022/12/15 10:30:09;;;;;;;28.08;16.50;;;;;;;-1.07;59.92;99071.16;5010694;28;20107;-78
2022/12/15 10:33:04;;;;;;;36.55;18.85;;;;;;;-1.03;61.29;99076.22;5010860;28;20065;-77
2022/12/15 10:35:33;;;;;;;30.60;18.50;;;;;;;-0.97;60.06;99069.19;5010547;28;20058;-78
2022/12/15 10:38:03;;;;;;;32.85;18.42;;;;;;;-0.95;59.89;99064.88;5010518;28;20057;-77
2022/12/15 10:40:48;;;;;;;34.05;19.52;;;;;;;-0.92;61.04;99064.81;5010287;28;20157;-77
2022/12/15 10:43:37;;;;;;;30.40;17.40;;;;;;;-0.87;59.86;99064.69;5010895;28;20049;-77
2022/12/15 10:46:17;;;;;;;34.00;16.83;;;;;;;-0.82;59.81;99064.59;5010270;28;20137;-77
2022/12/15 10:48:51;;;;;;;29.70;17.15;;;;;;;-0.80;60.51;99065.41;5010220;28;20054;-78
2022/12/15 10:51:35;;;;;;;30.88;18.42;;;;;;;-0.78;61.09;99079.16;5010281;28;20477;-78
2022/12/15 10:54:12;;;;;;;30.38;18.13;;;;;;;-0.75;60.92;99066.16;5010378;28;20062;-77
2022/12/15 10:57:16;;;;;;;37.42;19.83;;;;;;;-0.72;61.16;99070.41;5010015;28;20065;-77
2022/12/15 10:59:43;;;;;;;35.67;20.67;;;;;;;-0.68;60.11;99078.06;4991883;28;20136;-77
2022/12/15 11:02:32;;;;;;;34.10;18.60;;;;;;;-0.67;60.89;99079.75;5010273;28;20058;-78
2022/12/15 11:05:15;;;;;;;32.88;19.85;;;;;;;-0.64;60.70;99078.84;5009917;28;20496;-77
2022/12/15 11:08:15;;;;;;;36.13;19.92;;;;;;;-0.60;61.54;99071.91;5009883;28;20053;-77
2022/12/15 11:14:05;;;;;;;32.85;18.67;;;;;;;-0.32;62.29;99071.25;5009879;28;20567;-77
2022/12/15 11:16:44;;;;;;;32.55;19.42;;;;;;;-0.02;62.74;99069.69;5009978;28;20111;-77
2022/12/15 11:19:15;;;;;;;29.45;18.50;;;;;;;0.38;63.62;99059.19;5010000;28;20428;-77
2022/12/15 11:21:47;;;;;;;29.77;18.52;;;;;;;0.88;63.79;99076.84;5009872;28;20181;-78
2022/12/15 11:24:30;;;;;;;27.83;17.55;;;;;;;1.45;63.44;99083.00;5009954;28;20065;-77
2022/12/15 11:27:29;;;;;;;31.38;17.58;;;;;;;2.10;59.69;99096.53;5009576;28;20053;-77
2022/12/15 11:30:21;;;;;;;26.77;16.77;;;;;;;2.79;60.83;99078.63;5009820;28;20057;-77
2022/12/15 11:32:52;;;;;;;29.42;17.35;;;;;;;3.43;60.56;99071.94;5009684;28;20144;-78
2022/12/15 11:35:52;;;;;;;28.05;16.92;;;;;;;4.00;55.31;99074.03;5008850;28;20538;-78
2022/12/15 11:38:38;;;;;;;29.98;17.35;;;;;;;4.56;56.72;99076.06;5009915;28;20049;-78
2022/12/15 11:41:55;;;;;;;25.95;15.75;;;;;;;5.03;51.84;99074.88;5009712;28;20054;-78
2022/12/15 11:44:39;;;;;;;24.88;15.85;;;;;;;5.46;51.62;99071.22;4993868;28;20148;-80
2022/12/15 11:47:27;;;;;;;27.38;15.95;;;;;;;5.77;51.27;99068.91;5009378;28;20050;-78
2022/12/15 11:50:14;;;;;;;27.65;16.15;;;;;;;6.02;52.72;99078.16;5009804;28;20113;-78
2022/12/15 11:52:49;;;;;;;25.98;17.02;;;;;;;6.24;50.90;99072.72;5009757;28;20081;-78
2022/12/15 11:55:53;;;;;;;30.48;16.98;;;;;;;6.45;49.67;99070.81;5009549;28;20058;-78
2022/12/15 11:58:36;;;;;;;30.17;17.08;;;;;;;6.65;49.53;99061.09;5009430;28;20068;-78
2022/12/15 12:01:23;;;;;;;23.15;15.60;;;;;;;6.86;51.31;99061.75;5009602;28;20213;-77
2022/12/15 12:04:14;;;;;;;23.80;16.77;;;;;;;7.01;48.51;99060.09;4992085;28;20062;-77
2022/12/15 12:06:57;;;;;;;21.73;15.43;;;;;;;7.16;46.18;99054.94;5009168;28;20135;-78
2022/12/15 12:09:55;;;;;;;23.95;16.00;;;;;;;7.34;50.37;99052.25;5009429;28;20104;-77
2022/12/15 12:12:32;;;;;;;21.25;15.15;;;;;;;7.49;49.34;99055.78;4982889;28;20081;-77
2022/12/15 12:15:20;;;;;;;23.63;16.15;;;;;;;7.63;49.03;99058.47;5009466;28;20484;-78
2022/12/15 12:17:51;;;;;;;22.10;14.77;;;;;;;7.74;48.75;99057.88;5009080;28;20557;-78
2022/12/15 12:20:26;;;;;;;25.10;16.60;;;;;;;7.80;47.45;99059.31;5009283;28;20081;-78
2022/12/15 12:23:03;;;;;;;25.10;15.43;;;;;;;7.77;46.51;99051.63;5009190;28;20501;-78
2022/12/15 12:25:38;;;;;;;28.13;16.45;;;;;;;7.66;46.56;99053.06;5009352;28;20058;-78
2022/12/15 12:28:50;;;;;;;23.70;16.17;;;;;;;7.43;46.25;99051.75;4991673;28;20049;-78
2022/12/15 12:31:33;;;;;;;23.65;15.38;;;;;;;7.19;46.57;99053.94;5009008;28;20085;-77
2022/12/15 12:34:08;;;;;;;27.77;16.37;;;;;;;6.88;46.54;99059.88;5009292;28;20096;-77
2022/12/15 12:36:35;;;;;;;25.02;16.10;;;;;;;6.62;47.54;99050.81;5008899;28;20292;-77
2022/12/15 12:39:02;;;;;;;26.88;17.25;;;;;;;6.36;48.13;99051.22;5009280;28;20089;-77
2022/12/15 12:41:47;;;;;;;25.35;16.63;;;;;;;6.11;48.10;99057.69;5009008;28;20092;-77
2022/12/15 12:44:26;;;;;;;25.75;17.00;;;;;;;5.92;48.23;99056.88;5009262;28;20136;-77
2022/12/15 12:46:55;;;;;;;26.75;17.13;;;;;;;5.80;49.14;99053.91;5010976;28;20180;-77
2022/12/15 12:49:29;;;;;;;27.48;17.90;;;;;;;5.73;49.59;99053.38;4993216;28;20078;-77
2022/12/15 12:51:59;;;;;;;30.33;18.08;;;;;;;5.76;50.22;99052.41;5012994;28;20080;-77
2022/12/15 12:54:34;;;;;;;25.75;17.45;;;;;;;5.79;49.52;99049.63;5016131;28;20089;-77
2022/12/15 12:57:10;;;;;;;25.38;16.30;;;;;;;5.84;48.67;99052.03;4994388;28;20085;-78
2022/12/15 12:59:55;;;;;;;27.25;17.23;;;;;;;5.89;49.46;99046.56;4994950;28;20141;-77
2022/12/15 13:02:24;;;;;;;26.35;17.52;;;;;;;5.81;48.70;99039.13;4995207;28;20085;-78
2022/12/15 13:04:58;;;;;;;24.48;16.42;;;;;;;5.63;48.69;99033.00;5009752;28;20058;-76
2022/12/15 13:07:34;;;;;;;26.02;18.27;;;;;;;5.40;48.31;99027.97;5009582;28;20132;-77
2022/12/15 13:10:15;;;;;;;26.92;17.77;;;;;;;5.21;48.73;99025.38;5009012;28;20527;-77
2022/12/15 13:12:51;;;;;;;31.10;18.00;;;;;;;5.06;49.17;99026.94;5110363;23;20044;-81
2022/12/15 13:15:33;;;;;;;31.52;18.58;;;;;;;4.85;49.43;99031.41;5009958;28;20545;-81
2022/12/15 13:18:06;;;;;;;28.48;18.27;;;;;;;4.66;49.63;99034.81;5013612;28;20597;-81
2022/12/15 13:20:36;;;;;;;29.77;19.00;;;;;;;4.43;49.75;99034.91;4987454;28;20499;-83
2022/12/15 13:23:18;;;;;;;31.77;18.92;;;;;;;4.21;50.60;99034.13;5003742;28;20061;-84
2022/12/15 13:25:57;;;;;;;31.98;18.92;;;;;;;4.06;50.52;99031.25;5019122;28;20057;-84
2022/12/15 13:28:33;;;;;;;32.70;17.15;;;;;;;3.90;50.65;99029.28;5007838;28;20481;-82
2022/12/15 13:31:15;;;;;;;35.30;18.52;;;;;;;3.73;51.83;99026.53;4993552;28;20054;-83
2022/12/15 13:33:49;;;;;;;30.27;17.27;;;;;;;3.67;52.58;99027.63;4975867;28;20554;-81
2022/12/15 13:36:34;;;;;;;;;;;;;;;3.64;52.82;99031.22;5015310;28;20057;-84
2022/12/15 13:39:00;;;;;;;33.22;18.17;;;;;;;3.64;52.43;99022.56;5017267;28;19992;-83
2022/12/15 13:41:27;;;;;;;28.95;18.30;;;;;;;3.59;51.99;99021.91;5006639;28;20050;-83
2022/12/15 13:43:54;;;;;;;35.38;19.33;;;;;;;3.55;52.34;99030.72;5020724;28;20507;-82
2022/12/15 13:46:26;;;;;;;31.98;19.35;;;;;;;3.51;52.72;99024.78;5017591;28;20061;-82
2022/12/15 13:49:09;;;;;;;29.13;18.38;;;;;;;3.49;53.19;99021.41;4998558;28;20395;-83
2022/12/15 13:51:43;;;;;;;31.48;17.60;;;;;;;3.51;53.16;99025.63;5023919;28;20088;-83
2022/12/15 13:54:22;;;;;;;32.22;19.27;;;;;;;3.54;52.94;99029.03;5032304;28;20144;-83
2022/12/15 13:56:49;;;;;;;30.38;19.08;;;;;;;3.56;53.04;99029.81;5015143;28;20049;-83
2022/12/15 13:59:38;;;;;;;38.15;18.77;;;;;;;3.56;53.51;99029.81;5019755;28;20085;-82
2022/12/15 14:02:29;;;;;;;29.98;19.13;;;;;;;3.57;53.72;99029.75;5014710;28;20057;-83
2022/12/15 14:05:10;;;;;;;38.25;21.35;;;;;;;3.61;53.12;99025.25;5014753;28;20422;-82
2022/12/15 14:07:39;;;;;;;32.15;19.90;;;;;;;3.69;53.08;99025.81;5019913;28;20050;-83
2022/12/15 14:10:17;;;;;;;29.98;19.08;;;;;;;3.67;53.22;99027.63;5005821;28;20164;-82
2022/12/15 14:12:47;;;;;;;35.22;20.25;;;;;;;3.72;53.02;99023.09;5000966;28;20511;-83
2022/12/15 14:15:22;;;;;;;30.27;19.85;;;;;;;3.75;53.35;99024.72;5020016;28;20100;-84
2022/12/15 14:17:53;;;;;;;33.60;20.17;;;;;;;3.77;53.36;99013.31;5030310;28;20065;-83